^^
Grace C. Lehan Memorial Weather Station Historical Data
Daily Summary for August 1, 2021 Units:  Both    English   Metric
Daily Weekly Monthly Yearly
  High: Low: Average:
Temperature: 61 °F /  16.1 °C 46.1 °F /  7.8 °C 53.8 °F /  12.1 °C
Dew Point: 50.1 °F /  10.1 °C 34 °F /  1.1 °C 42.5 °F /  5.8 °C
Humidity: 95% 39.3% 70%
Wind Speed: 12.6mph /  20.3km/h - 1.8mph /  2.9km/h
Wind Gust: 23mph /  37km/h - -
Wind- - WNW
Pressure: 30.06 in /  1017.8 hPa 29.73 in /  1006.7 hPa -
Precipitation: 0.00 in /  0 mm    
 
 
Tabular Data for August 1, 2021
Time Temperature Dew Point Pressure Wind Wind Speed Wind Gust Humidity Rainfall Rate (Hourly) solar
00:09 52.9 °F /  11.6 °C 50.1 °F /  10.1 °C 29.73in /  1006.7hPa Calm     90% 0.00in /  0mm 0 W/m2
00:14 52.8 °F /  11.6 °C 50 °F /  10 °C 29.73in /  1006.7hPa Calm     90% 0.00in /  0mm 0 W/m2
00:19 52.7 °F /  11.5 °C 49.9 °F /  9.9 °C 29.73in /  1006.7hPa Calm     90% 0.00in /  0mm 0 W/m2
00:24 52.7 °F /  11.5 °C 49.8 °F /  9.9 °C 29.73in /  1006.7hPa Calm     90% 0.00in /  0mm 0 W/m2
00:29 52.7 °F /  11.5 °C 49.8 °F /  9.9 °C 29.73in /  1006.7hPa Calm     90% 0.00in /  0mm 0 W/m2
00:34 52.7 °F /  11.5 °C 49.8 °F /  9.9 °C 29.73in /  1006.7hPa Calm     90% 0.00in /  0mm 0 W/m2
00:39 52.6 °F /  11.4 °C 49.8 °F /  9.9 °C 29.73in /  1006.7hPa Calm     90% 0.00in /  0mm 0 W/m2
00:44 52.5 °F /  11.4 °C 49.7 °F /  9.8 °C 29.74in /  1007hPa Calm     90% 0.00in /  0mm 0 W/m2
00:48 52.4 °F /  11.3 °C 49.6 °F /  9.8 °C 29.74in /  1007hPa Calm     90% 0.00in /  0mm 0 W/m2
00:54 52.4 °F /  11.3 °C 49.5 °F /  9.7 °C 29.73in /  1006.7hPa Calm     90% 0.00in /  0mm 0 W/m2
00:59 52.2 °F /  11.2 °C 49.4 °F /  9.7 °C 29.73in /  1006.7hPa Calm     90% 0.00in /  0mm 0 W/m2
01:04 52.1 °F /  11.2 °C 49.3 °F /  9.6 °C 29.73in /  1006.7hPa Calm     90% 0.00in /  0mm 0 W/m2
01:09 51.9 °F /  11.1 °C 49.1 °F /  9.5 °C 29.73in /  1006.7hPa Calm     90% 0.00in /  0mm 0 W/m2
01:14 51.8 °F /  11 °C 49 °F /  9.4 °C 29.73in /  1006.7hPa Calm     90.2% 0.00in /  0mm 0 W/m2
01:19 51.7 °F /  10.9 °C 49.1 °F /  9.5 °C 29.73in /  1006.7hPa Calm     90.8% 0.00in /  0mm 0 W/m2
01:24 51.5 °F /  10.8 °C 49 °F /  9.4 °C 29.73in /  1006.7hPa Calm     91% 0.00in /  0mm 0 W/m2
01:29 51.3 °F /  10.7 °C 48.7 °F /  9.3 °C 29.73in /  1006.7hPa Calm     90.8% 0.00in /  0mm 0 W/m2
01:34 51.1 °F /  10.6 °C 48.5 °F /  9.2 °C 29.73in /  1006.7hPa Calm     91% 0.00in /  0mm 0 W/m2
01:39 50.9 °F /  10.5 °C 48.4 °F /  9.1 °C 29.74in /  1007hPa Calm     91% 0.00in /  0mm 0 W/m2
01:44 50.8 °F /  10.4 °C 48.4 °F /  9.1 °C 29.74in /  1007hPa Calm     91.6% 0.00in /  0mm 0 W/m2
01:49 50.7 °F /  10.4 °C 48.5 °F /  9.2 °C 29.74in /  1007hPa Calm     92% 0.00in /  0mm 0 W/m2
01:54 50.7 °F /  10.4 °C 48.5 °F /  9.2 °C 29.74in /  1007hPa Calm     92% 0.00in /  0mm 0 W/m2
01:59 50.6 °F /  10.3 °C 48.4 °F /  9.1 °C 29.74in /  1007hPa Calm     92% 0.00in /  0mm 0 W/m2
02:04 50.5 °F /  10.3 °C 48.2 °F /  9 °C 29.74in /  1007hPa Calm     92% 0.00in /  0mm 0 W/m2
02:09 50.3 °F /  10.2 °C 48.1 °F /  8.9 °C 29.75in /  1007.3hPa Calm     92% 0.00in /  0mm 0 W/m2
02:14 50.2 °F /  10.1 °C 48 °F /  8.9 °C 29.75in /  1007.3hPa Calm     92% 0.00in /  0mm 0 W/m2
02:19 50.2 °F /  10.1 °C 47.9 °F /  8.8 °C 29.75in /  1007.3hPa Calm     92% 0.00in /  0mm 0 W/m2
02:24 50.1 °F /  10.1 °C 47.9 °F /  8.8 °C 29.75in /  1007.3hPa Calm     92% 0.00in /  0mm 0 W/m2
02:29 50 °F /  10 °C 47.8 °F /  8.8 °C 29.75in /  1007.3hPa Calm     92% 0.00in /  0mm 0 W/m2
02:34 49.9 °F /  9.9 °C 47.7 °F /  8.7 °C 29.75in /  1007.3hPa Calm     92% 0.00in /  0mm 0 W/m2
02:39 49.8 °F /  9.9 °C 47.5 °F /  8.6 °C 29.75in /  1007.3hPa Calm     92% 0.00in /  0mm 0 W/m2
02:44 49.6 °F /  9.8 °C 47.4 °F /  8.6 °C 29.75in /  1007.3hPa Calm     92% 0.00in /  0mm 0 W/m2
02:49 49.3 °F /  9.6 °C 47.1 °F /  8.4 °C 29.75in /  1007.3hPa Calm     92% 0.00in /  0mm 0 W/m2
02:54 49.2 °F /  9.6 °C 46.9 °F /  8.3 °C 29.75in /  1007.3hPa Calm     92% 0.00in /  0mm 0 W/m2
02:59 49 °F /  9.4 °C 46.9 °F /  8.3 °C 29.76in /  1007.7hPa Calm     92.2% 0.00in /  0mm 0 W/m2
03:04 49 °F /  9.4 °C 47 °F /  8.3 °C 29.76in /  1007.7hPa Calm     93% 0.00in /  0mm 0 W/m2
03:09 48.8 °F /  9.3 °C 46.9 °F /  8.3 °C 29.76in /  1007.7hPa Calm     93% 0.00in /  0mm 0 W/m2
03:14 48.7 °F /  9.3 °C 46.8 °F /  8.2 °C 29.76in /  1007.7hPa Calm     93% 0.00in /  0mm 0 W/m2
03:19 48.6 °F /  9.2 °C 46.6 °F /  8.1 °C 29.76in /  1007.7hPa Calm     93% 0.00in /  0mm 0 W/m2
03:24 48.4 °F /  9.1 °C 46.5 °F /  8.1 °C 29.76in /  1007.7hPa Calm     93% 0.00in /  0mm 0 W/m2
03:29 48.3 °F /  9.1 °C 46.4 °F /  8 °C 29.77in /  1008hPa Calm     93% 0.00in /  0mm 0 W/m2
03:34 48.4 °F /  9.1 °C 46.5 °F /  8.1 °C 29.76in /  1007.7hPa WSW 0.3mph /  0.5km/h 4mph /  6.4km/h 93.3% 0.00in /  0mm 0 W/m2
03:39 48.5 °F /  9.2 °C 46.9 °F /  8.3 °C 29.77in /  1008hPa Calm   4mph /  6.4km/h 94% 0.00in /  0mm 0 W/m2
03:44 48.5 °F /  9.2 °C 46.9 °F /  8.3 °C 29.77in /  1008hPa Calm   4mph /  6.4km/h 94% 0.00in /  0mm 0 W/m2
03:49 48.5 °F /  9.2 °C 46.9 °F /  8.3 °C 29.77in /  1008hPa WSW 0.1mph /  0.2km/h 4mph /  6.4km/h 94% 0.00in /  0mm 0 W/m2
03:54 48.4 °F /  9.1 °C 46.8 °F /  8.2 °C 29.77in /  1008hPa WSW 0.3mph /  0.5km/h 4mph /  6.4km/h 94% 0.00in /  0mm 0 W/m2
03:59 48.4 °F /  9.1 °C 46.8 °F /  8.2 °C 29.77in /  1008hPa Calm   4mph /  6.4km/h 94% 0.00in /  0mm 0 W/m2
04:00 48.4 °F /  9.1 °C 46.8 °F /  8.2 °C 29.77in /  1008hPa Calm   4mph /  6.4km/h 94% 0.00in /  0mm 0 W/m2
04:09 48.5 °F /  9.2 °C 46.9 °F /  8.3 °C 29.78in /  1008.4hPa Calm     94% 0.00in /  0mm 0 W/m2
04:14 48.5 °F /  9.2 °C 46.9 °F /  8.3 °C 29.78in /  1008.4hPa Calm     94% 0.00in /  0mm 0 W/m2
04:19 48.5 °F /  9.2 °C 46.9 °F /  8.3 °C 29.78in /  1008.4hPa Calm     94% 0.00in /  0mm 0 W/m2
04:24 48.4 °F /  9.1 °C 46.7 °F /  8.2 °C 29.79in /  1008.7hPa Calm     94% 0.00in /  0mm 0 W/m2
04:29 48.2 °F /  9 °C 46.6 °F /  8.1 °C 29.79in /  1008.7hPa Calm     94% 0.00in /  0mm 0 W/m2
04:34 48.1 °F /  8.9 °C 46.5 °F /  8.1 °C 29.79in /  1008.7hPa Calm     94% 0.00in /  0mm 0 W/m2
04:39 48 °F /  8.9 °C 46.4 °F /  8 °C 29.79in /  1008.7hPa Calm     94% 0.00in /  0mm 0 W/m2
04:44 48 °F /  8.9 °C 46.3 °F /  7.9 °C 29.80in /  1009hPa Calm     94% 0.00in /  0mm 0 W/m2
04:49 47.9 °F /  8.8 °C 46.3 °F /  7.9 °C 29.80in /  1009hPa Calm     94% 0.00in /  0mm 0 W/m2
04:54 47.8 °F /  8.8 °C 46.2 °F /  7.9 °C 29.81in /  1009.4hPa Calm     94% 0.00in /  0mm 0 W/m2
04:59 47.7 °F /  8.7 °C 46.1 °F /  7.8 °C 29.81in /  1009.4hPa Calm     94% 0.00in /  0mm 0 W/m2
05:04 47.6 °F /  8.7 °C 46 °F /  7.8 °C 29.81in /  1009.4hPa Calm     94% 0.00in /  0mm 0 W/m2
05:09 47.5 °F /  8.6 °C 45.9 °F /  7.7 °C 29.81in /  1009.4hPa Calm     94% 0.00in /  0mm 0 W/m2
05:14 47.5 °F /  8.6 °C 45.8 °F /  7.7 °C 29.81in /  1009.4hPa Calm     94% 0.00in /  0mm 0 W/m2
05:19 47.4 °F /  8.6 °C 45.8 °F /  7.7 °C 29.81in /  1009.4hPa Calm     94% 0.00in /  0mm 0 W/m2
05:24 47.4 °F /  8.6 °C 45.8 °F /  7.7 °C 29.81in /  1009.4hPa Calm     94% 0.00in /  0mm 0 W/m2
05:29 47.3 °F /  8.5 °C 45.7 °F /  7.6 °C 29.81in /  1009.4hPa Calm     94% 0.00in /  0mm 0 W/m2
05:34 47.2 °F /  8.4 °C 45.6 °F /  7.6 °C 29.82in /  1009.7hPa Calm     94% 0.00in /  0mm 0 W/m2
05:39 47.1 °F /  8.4 °C 45.5 °F /  7.5 °C 29.82in /  1009.7hPa Calm     94% 0.00in /  0mm 0 W/m2
05:44 47 °F /  8.3 °C 45.4 °F /  7.4 °C 29.82in /  1009.7hPa Calm     94% 0.00in /  0mm 0 W/m2
05:49 46.9 °F /  8.3 °C 45.3 °F /  7.4 °C 29.82in /  1009.7hPa Calm     94% 0.00in /  0mm 0 W/m2
05:54 46.8 °F /  8.2 °C 45.1 °F /  7.3 °C 29.82in /  1009.7hPa Calm     94% 0.00in /  0mm 0 W/m2
05:59 46.7 °F /  8.2 °C 45 °F /  7.2 °C 29.83in /  1010hPa Calm     94% 0.00in /  0mm 0 W/m2
06:04 46.5 °F /  8.1 °C 44.9 °F /  7.2 °C 29.83in /  1010hPa Calm     94% 0.00in /  0mm 0 W/m2
06:09 46.4 °F /  8 °C 44.8 °F /  7.1 °C 29.83in /  1010hPa Calm     94% 0.00in /  0mm 0 W/m2
06:14 46.3 °F /  7.9 °C 44.7 °F /  7.1 °C 29.84in /  1010.4hPa Calm     94% 0.00in /  0mm 0 W/m2
06:19 46.2 °F /  7.9 °C 44.6 °F /  7 °C 29.84in /  1010.4hPa Calm     94% 0.00in /  0mm 0 W/m2
06:24 46.2 °F /  7.9 °C 44.5 °F /  6.9 °C 29.84in /  1010.4hPa Calm     94% 0.00in /  0mm 0 W/m2
06:29 46.1 °F /  7.8 °C 44.5 °F /  6.9 °C 29.85in /  1010.7hPa Calm     94% 0.00in /  0mm 0 W/m2
06:34 46.1 °F /  7.8 °C 44.5 °F /  6.9 °C 29.85in /  1010.7hPa Calm     94% 0.00in /  0mm 0 W/m2
06:39 46.1 °F /  7.8 °C 44.5 °F /  6.9 °C 29.85in /  1010.7hPa Calm     94% 0.00in /  0mm 0 W/m2
06:44 46.2 °F /  7.9 °C 44.7 °F /  7.1 °C 29.85in /  1010.7hPa Calm     94.3% 0.00in /  0mm 0 W/m2
06:49 46.4 °F /  8 °C 45 °F /  7.2 °C 29.85in /  1010.7hPa Calm     95% 0.00in /  0mm 0 W/m2
06:54 46.5 °F /  8.1 °C 45.2 °F /  7.3 °C 29.85in /  1010.7hPa Calm     95% 0.00in /  0mm 0 W/m2
06:59 46.7 °F /  8.2 °C 45.3 °F /  7.4 °C 29.86in /  1011.1hPa Calm     95% 0.00in /  0mm 0 W/m2
07:04 46.8 °F /  8.2 °C 45.5 °F /  7.5 °C 29.86in /  1011.1hPa Calm     95% 0.00in /  0mm 0 W/m2
07:09 47 °F /  8.3 °C 45.7 °F /  7.6 °C 29.86in /  1011.1hPa Calm     95% 0.00in /  0mm 0 W/m2
07:14 47.3 °F /  8.5 °C 45.9 °F /  7.7 °C 29.86in /  1011.1hPa WSW 0.1mph /  0.2km/h 3mph /  4.8km/h 95% 0.00in /  0mm 0 W/m2
07:19 47.5 °F /  8.6 °C 46.1 °F /  7.8 °C 29.86in /  1011.1hPa WSW 0.1mph /  0.2km/h 3mph /  4.8km/h 95% 0.00in /  0mm 0 W/m2
07:24 47.7 °F /  8.7 °C 46.3 °F /  7.9 °C 29.86in /  1011.1hPa Calm   3mph /  4.8km/h 95% 0.00in /  0mm 0 W/m2
07:29 47.9 °F /  8.8 °C 46.5 °F /  8.1 °C 29.87in /  1011.4hPa WSW 0.1mph /  0.2km/h 3mph /  4.8km/h 95% 0.00in /  0mm 0 W/m2
07:34 48.1 °F /  8.9 °C 46.7 °F /  8.2 °C 29.87in /  1011.4hPa Calm   3mph /  4.8km/h 95% 0.00in /  0mm 7 W/m2
07:39 48.3 °F /  9.1 °C 46.9 °F /  8.3 °C 29.87in /  1011.4hPa WSW 0.3mph /  0.5km/h 2mph /  3.2km/h 95% 0.00in /  0mm 11 W/m2
07:44 48.5 °F /  9.2 °C 47.2 °F /  8.4 °C 29.87in /  1011.4hPa Calm   2mph /  3.2km/h 95% 0.00in /  0mm 14 W/m2
07:49 48.7 °F /  9.3 °C 47.4 °F /  8.6 °C 29.88in /  1011.7hPa Calm   2mph /  3.2km/h 95% 0.00in /  0mm 11 W/m2
07:54 48.9 °F /  9.4 °C 47.5 °F /  8.6 °C 29.88in /  1011.7hPa Calm   2mph /  3.2km/h 95% 0.00in /  0mm 9 W/m2
07:59 49.1 °F /  9.5 °C 47.5 °F /  8.6 °C 29.89in /  1012.1hPa Calm   2mph /  3.2km/h 94.1% 0.00in /  0mm 9 W/m2
08:00 49.2 °F /  9.6 °C 47.6 °F /  8.7 °C 29.89in /  1012.1hPa Calm   2mph /  3.2km/h 94% 0.00in /  0mm 7 W/m2
08:09 49.5 °F /  9.7 °C 47.8 °F /  8.8 °C 29.91in /  1012.8hPa West 2mph /  3.2km/h 5mph /  8km/h 94% 0.00in /  0mm 12 W/m2
08:14 49.6 °F /  9.8 °C 48 °F /  8.9 °C 29.91in /  1012.8hPa West 2.3mph /  3.7km/h 10mph /  16.1km/h 94% 0.00in /  0mm 21 W/m2
08:19 49.8 °F /  9.9 °C 48 °F /  8.9 °C 29.91in /  1012.8hPa WSW 1mph /  1.6km/h 10mph /  16.1km/h 93.2% 0.00in /  0mm 30 W/m2
08:24 50.1 °F /  10.1 °C 48.1 °F /  8.9 °C 29.91in /  1012.8hPa West 1.8mph /  2.9km/h 11mph /  17.7km/h 92.7% 0.00in /  0mm 40 W/m2
08:29 50.5 °F /  10.3 °C 48.2 °F /  9 °C 29.92in /  1013.1hPa West 1mph /  1.6km/h 11mph /  17.7km/h 91.7% 0.00in /  0mm 46 W/m2
08:34 50.8 °F /  10.4 °C 48.3 °F /  9.1 °C 29.92in /  1013.1hPa West 0.4mph /  0.6km/h 11mph /  17.7km/h 91% 0.00in /  0mm 49 W/m2
08:39 51.1 °F /  10.6 °C 48.4 °F /  9.1 °C 29.92in /  1013.1hPa Calm   3mph /  4.8km/h 90.3% 0.00in /  0mm 65 W/m2
08:44 51.3 °F /  10.7 °C 48.5 °F /  9.2 °C 29.93in /  1013.4hPa West 0.6mph /  1km/h 3mph /  4.8km/h 90% 0.00in /  0mm 62 W/m2
08:49 51.5 °F /  10.8 °C 48.3 °F /  9.1 °C 29.93in /  1013.4hPa WSW 0.9mph /  1.4km/h 5mph /  8km/h 88.8% 0.00in /  0mm 84 W/m2
08:54 51.7 °F /  10.9 °C 48.2 °F /  9 °C 29.93in /  1013.4hPa WNW 0.9mph /  1.4km/h 12mph /  19.3km/h 87.7% 0.00in /  0mm 84 W/m2
08:59 52 °F /  11.1 °C 48.2 °F /  9 °C 29.93in /  1013.4hPa West 0.6mph /  1km/h 12mph /  19.3km/h 87% 0.00in /  0mm 49 W/m2
09:04 52.1 °F /  11.2 °C 47.9 °F /  8.8 °C 29.94in /  1013.8hPa West 1.8mph /  2.9km/h 12mph /  19.3km/h 85.4% 0.00in /  0mm 56 W/m2
09:09 52.3 °F /  11.3 °C 47.5 °F /  8.6 °C 29.94in /  1013.8hPa West 0.7mph /  1.1km/h 10mph /  16.1km/h 83.6% 0.00in /  0mm 125 W/m2
09:14 52.5 °F /  11.4 °C 47.3 °F /  8.5 °C 29.94in /  1013.8hPa West 1.7mph /  2.7km/h 10mph /  16.1km/h 82.2% 0.00in /  0mm 316 W/m2
09:19 53 °F /  11.7 °C 47 °F /  8.3 °C 29.94in /  1013.8hPa WNW 3.3mph /  5.3km/h 11mph /  17.7km/h 80% 0.00in /  0mm 316 W/m2
09:24 53.7 °F /  12.1 °C 46.8 °F /  8.2 °C 29.94in /  1013.8hPa WNW 2.5mph /  4km/h 11mph /  17.7km/h 77.2% 0.00in /  0mm 327 W/m2
09:29 54.5 °F /  12.5 °C 45.7 °F /  7.6 °C 29.95in /  1014.1hPa WNW 4.6mph /  7.4km/h 20mph /  32.2km/h 71.9% 0.00in /  0mm 345 W/m2
09:34 55.6 °F /  13.1 °C 45.2 °F /  7.3 °C 29.95in /  1014.1hPa NW 5.1mph /  8.2km/h 20mph /  32.2km/h 68% 0.00in /  0mm 362 W/m2
09:39 56.5 °F /  13.6 °C 44 °F /  6.7 °C 29.95in /  1014.1hPa WNW 5mph /  8km/h 17mph /  27.4km/h 62.9% 0.00in /  0mm 374 W/m2
09:44 57.2 °F /  14 °C 44 °F /  6.7 °C 29.95in /  1014.1hPa WNW 4.1mph /  6.6km/h 17mph /  27.4km/h 61.3% 0.00in /  0mm 390 W/m2
09:49 57.9 °F /  14.4 °C 44 °F /  6.7 °C 29.96in /  1014.4hPa WNW 4.3mph /  6.9km/h 17mph /  27.4km/h 59.7% 0.00in /  0mm 404 W/m2
09:54 58.4 °F /  14.7 °C 43.4 °F /  6.3 °C 29.96in /  1014.4hPa WNW 3.7mph /  6km/h 17mph /  27.4km/h 57.3% 0.00in /  0mm 415 W/m2
09:59 58.6 °F /  14.8 °C 42.6 °F /  5.9 °C 29.96in /  1014.4hPa WNW 6.8mph /  10.9km/h 17mph /  27.4km/h 55.1% 0.00in /  0mm 434 W/m2
10:04 58.7 °F /  14.8 °C 42.5 °F /  5.8 °C 29.96in /  1014.4hPa WNW 4.6mph /  7.4km/h 17mph /  27.4km/h 54.7% 0.00in /  0mm 446 W/m2
10:09 58.8 °F /  14.9 °C 42.2 °F /  5.7 °C 29.96in /  1014.4hPa WNW 3.6mph /  5.8km/h 13mph /  20.9km/h 54% 0.00in /  0mm 457 W/m2
10:14 59 °F /  15 °C 41.9 °F /  5.5 °C 29.97in /  1014.8hPa WNW 5.9mph /  9.5km/h 14mph /  22.5km/h 52.9% 0.00in /  0mm 464 W/m2
10:19 59.1 °F /  15.1 °C 41.7 °F /  5.4 °C 29.97in /  1014.8hPa WNW 3.8mph /  6.1km/h 14mph /  22.5km/h 52.5% 0.00in /  0mm 471 W/m2
10:24 58.9 °F /  14.9 °C 42 °F /  5.6 °C 29.97in /  1014.8hPa WNW 2.6mph /  4.2km/h 14mph /  22.5km/h 53.2% 0.00in /  0mm 207 W/m2
10:29 58.7 °F /  14.8 °C 41.6 °F /  5.3 °C 29.97in /  1014.8hPa WNW 4.4mph /  7.1km/h 14mph /  22.5km/h 52.8% 0.00in /  0mm 501 W/m2
10:34 58.8 °F /  14.9 °C 41.7 °F /  5.4 °C 29.97in /  1014.8hPa WNW 3.4mph /  5.5km/h 15mph /  24.1km/h 52.9% 0.00in /  0mm 510 W/m2
10:39 59.1 °F /  15.1 °C 41.3 °F /  5.2 °C 29.97in /  1014.8hPa WNW 4.3mph /  6.9km/h 15mph /  24.1km/h 51.6% 0.00in /  0mm 524 W/m2
10:44 59.3 °F /  15.2 °C 40.8 °F /  4.9 °C 29.97in /  1014.8hPa WNW 3.5mph /  5.6km/h 15mph /  24.1km/h 50.2% 0.00in /  0mm 526 W/m2
10:49 59.4 °F /  15.2 °C 40.8 °F /  4.9 °C 29.97in /  1014.8hPa NW 5.5mph /  8.9km/h 15mph /  24.1km/h 50.1% 0.00in /  0mm 533 W/m2
10:54 59.4 °F /  15.2 °C 40.9 °F /  4.9 °C 29.97in /  1014.8hPa NW 2.6mph /  4.2km/h 15mph /  24.1km/h 50.3% 0.00in /  0mm 297 W/m2
10:59 59.4 °F /  15.2 °C 40.9 °F /  4.9 °C 29.97in /  1014.8hPa WNW 3.5mph /  5.6km/h 15mph /  24.1km/h 50.4% 0.00in /  0mm 540 W/m2
11:04 59.3 °F /  15.2 °C 41.1 °F /  5.1 °C 29.97in /  1014.8hPa NW 3.1mph /  5km/h 15mph /  24.1km/h 50.7% 0.00in /  0mm 536 W/m2
11:09 59.5 °F /  15.3 °C 40.7 °F /  4.8 °C 29.97in /  1014.8hPa WNW 6.9mph /  11.1km/h 18mph /  29km/h 49.7% 0.00in /  0mm 584 W/m2
11:14 59.9 °F /  15.5 °C 40.8 °F /  4.9 °C 29.97in /  1014.8hPa WNW 5.6mph /  9km/h 18mph /  29km/h 49.2% 0.00in /  0mm 589 W/m2
11:19 60.1 °F /  15.6 °C 39.1 °F /  3.9 °C 29.98in /  1015.1hPa WNW 7.2mph /  11.6km/h 18mph /  29km/h 45.7% 0.00in /  0mm 580 W/m2
11:24 60.3 °F /  15.7 °C 39.6 °F /  4.2 °C 29.98in /  1015.1hPa WNW 8.1mph /  13km/h 21mph /  33.8km/h 46.2% 0.00in /  0mm 584 W/m2
11:29 60.2 °F /  15.7 °C 38.1 °F /  3.4 °C 29.98in /  1015.1hPa WNW 12.6mph /  20.3km/h 21mph /  33.8km/h 43.8% 0.00in /  0mm 591 W/m2
11:34 59.9 °F /  15.5 °C 38.1 °F /  3.4 °C 29.98in /  1015.1hPa WNW 8mph /  12.9km/h 23mph /  37km/h 44.2% 0.00in /  0mm 598 W/m2
11:39 59.9 °F /  15.5 °C 38.6 °F /  3.7 °C 29.99in /  1015.5hPa WNW 6.8mph /  10.9km/h 23mph /  37km/h 45.2% 0.00in /  0mm 601 W/m2
11:44 60.1 °F /  15.6 °C 38.9 °F /  3.8 °C 29.99in /  1015.5hPa WNW 5.5mph /  8.9km/h 23mph /  37km/h 45.4% 0.00in /  0mm 527 W/m2
11:49 60.3 °F /  15.7 °C 38.9 °F /  3.8 °C 29.99in /  1015.5hPa WNW 5.2mph /  8.4km/h 23mph /  37km/h 45.1% 0.00in /  0mm 564 W/m2
11:54 60.4 °F /  15.8 °C 38.7 °F /  3.7 °C 29.99in /  1015.5hPa WNW 8.9mph /  14.3km/h 23mph /  37km/h 44.6% 0.00in /  0mm 564 W/m2
11:59 60.1 °F /  15.6 °C 37.6 °F /  3.1 °C 29.99in /  1015.5hPa WNW 6.6mph /  10.6km/h 23mph /  37km/h 43.1% 0.00in /  0mm 69 W/m2
12:00 59.9 °F /  15.5 °C 38 °F /  3.3 °C 29.99in /  1015.5hPa Calm   23mph /  37km/h 44% 0.00in /  0mm 39 W/m2
12:09 59.9 °F /  15.5 °C 37.5 °F /  3.1 °C 29.99in /  1015.5hPa West 7.6mph /  12.2km/h 16mph /  25.7km/h 43.2% 0.00in /  0mm 290 W/m2
12:14 59.9 °F /  15.5 °C 37.7 °F /  3.2 °C 29.99in /  1015.5hPa WNW 7mph /  11.3km/h 19mph /  30.6km/h 43.5% 0.00in /  0mm 376 W/m2
12:19 59.9 °F /  15.5 °C 38.1 °F /  3.4 °C 29.99in /  1015.5hPa WNW 3.2mph /  5.1km/h 19mph /  30.6km/h 44.3% 0.00in /  0mm 139 W/m2
12:24 60.1 °F /  15.6 °C 40 °F /  4.4 °C 29.99in /  1015.5hPa WNW 3mph /  4.8km/h 19mph /  30.6km/h 47.2% 0.00in /  0mm 67 W/m2
12:29 60.4 °F /  15.8 °C 38.5 °F /  3.6 °C 29.99in /  1015.5hPa West 4.1mph /  6.6km/h 19mph /  30.6km/h 44.2% 0.00in /  0mm 204 W/m2
12:34 60.4 °F /  15.8 °C 38.9 °F /  3.8 °C 29.98in /  1015.1hPa WNW 1.9mph /  3.1km/h 19mph /  30.6km/h 44.9% 0.00in /  0mm 72 W/m2
12:39 60.6 °F /  15.9 °C 39.1 °F /  3.9 °C 29.98in /  1015.1hPa WNW 3.7mph /  6km/h 14mph /  22.5km/h 45% 0.00in /  0mm 156 W/m2
12:44 60.6 °F /  15.9 °C 39.1 °F /  3.9 °C 29.98in /  1015.1hPa WNW 3.5mph /  5.6km/h 14mph /  22.5km/h 44.8% 0.00in /  0mm 160 W/m2
12:49 60.7 °F /  15.9 °C 38.7 °F /  3.7 °C 29.98in /  1015.1hPa WNW 3.5mph /  5.6km/h 14mph /  22.5km/h 44.1% 0.00in /  0mm 144 W/m2
12:54 60.7 °F /  15.9 °C 38.2 °F /  3.4 °C 29.98in /  1015.1hPa WNW 6.6mph /  10.6km/h 16mph /  25.7km/h 43.2% 0.00in /  0mm 564 W/m2
12:59 60.5 °F /  15.8 °C 37.6 °F /  3.1 °C 29.98in /  1015.1hPa NW 4.5mph /  7.2km/h 16mph /  25.7km/h 42.5% 0.00in /  0mm 635 W/m2
13:04 60.4 °F /  15.8 °C 37.2 °F /  2.9 °C 29.98in /  1015.1hPa WNW 5.9mph /  9.5km/h 19mph /  30.6km/h 42.1% 0.00in /  0mm 515 W/m2
13:09 60.3 °F /  15.7 °C 37.4 °F /  3 °C 29.98in /  1015.1hPa West 4.7mph /  7.6km/h 19mph /  30.6km/h 42.5% 0.00in /  0mm 174 W/m2
13:14 60.4 °F /  15.8 °C 37.1 °F /  2.8 °C 29.98in /  1015.1hPa WNW 4.8mph /  7.7km/h 19mph /  30.6km/h 41.8% 0.00in /  0mm 202 W/m2
13:19 60.5 °F /  15.8 °C 36.2 °F /  2.3 °C 29.98in /  1015.1hPa WNW 7.6mph /  12.2km/h 20mph /  32.2km/h 40.3% 0.00in /  0mm 218 W/m2
13:24 60.4 °F /  15.8 °C 36.1 °F /  2.3 °C 29.98in /  1015.1hPa WNW 4mph /  6.4km/h 20mph /  32.2km/h 40.2% 0.00in /  0mm 241 W/m2
13:29 60.6 °F /  15.9 °C 35.7 °F /  2.1 °C 29.98in /  1015.1hPa WNW 4.7mph /  7.6km/h 20mph /  32.2km/h 39.3% 0.00in /  0mm 346 W/m2
13:34 60.8 °F /  16 °C 36.8 °F /  2.7 °C 29.98in /  1015.1hPa WNW 3.7mph /  6km/h 20mph /  32.2km/h 40.8% 0.00in /  0mm 346 W/m2
13:39 61 °F /  16.1 °C 36.5 °F /  2.5 °C 29.98in /  1015.1hPa WNW 4.1mph /  6.6km/h 12mph /  19.3km/h 40% 0.00in /  0mm 137 W/m2
13:44 60.9 °F /  16.1 °C 36.6 °F /  2.6 °C 29.98in /  1015.1hPa West 4.5mph /  7.2km/h 12mph /  19.3km/h 40.3% 0.00in /  0mm 255 W/m2
13:49 60.7 °F /  15.9 °C 36.7 °F /  2.6 °C 29.98in /  1015.1hPa WNW 5mph /  8km/h 13mph /  20.9km/h 40.8% 0.00in /  0mm 301 W/m2
13:54 60.5 °F /  15.8 °C 36.1 °F /  2.3 °C 29.98in /  1015.1hPa WNW 4.7mph /  7.6km/h 13mph /  20.9km/h 40% 0.00in /  0mm 264 W/m2
13:59 60.6 °F /  15.9 °C 37.2 °F /  2.9 °C 29.98in /  1015.1hPa WNW 3.8mph /  6.1km/h 13mph /  20.9km/h 41.6% 0.00in /  0mm 369 W/m2
14:04 60.8 °F /  16 °C 36.9 °F /  2.7 °C 29.98in /  1015.1hPa NW 3.9mph /  6.3km/h 13mph /  20.9km/h 40.9% 0.00in /  0mm 135 W/m2
14:09 60.8 °F /  16 °C 36.7 °F /  2.6 °C 29.98in /  1015.1hPa NW 4.9mph /  7.9km/h 14mph /  22.5km/h 40.6% 0.00in /  0mm 104 W/m2
14:14 60.7 °F /  15.9 °C 37.1 °F /  2.8 °C 29.98in /  1015.1hPa NW 3mph /  4.8km/h 14mph /  22.5km/h 41.3% 0.00in /  0mm 185 W/m2
14:19 60.7 °F /  15.9 °C 36.6 °F /  2.6 °C 29.98in /  1015.1hPa WNW 1.3mph /  2.1km/h 14mph /  22.5km/h 40.5% 0.00in /  0mm 116 W/m2
14:24 60.7 °F /  15.9 °C 36.6 °F /  2.6 °C 29.99in /  1015.5hPa WNW 5.6mph /  9km/h 15mph /  24.1km/h 40.5% 0.00in /  0mm 418 W/m2
14:29 60.7 °F /  15.9 °C 36.4 °F /  2.4 °C 29.99in /  1015.5hPa NW 3.6mph /  5.8km/h 15mph /  24.1km/h 40.3% 0.00in /  0mm 418 W/m2
14:34 60.7 °F /  15.9 °C 36.7 °F /  2.6 °C 29.98in /  1015.1hPa WNW 3.2mph /  5.1km/h 15mph /  24.1km/h 40.7% 0.00in /  0mm 478 W/m2
14:39 60.7 °F /  15.9 °C 36.2 °F /  2.3 °C 29.98in /  1015.1hPa WNW 3.9mph /  6.3km/h 13mph /  20.9km/h 39.9% 0.00in /  0mm 478 W/m2
14:44 60.6 °F /  15.9 °C 36.4 °F /  2.4 °C 29.99in /  1015.5hPa WNW 2.5mph /  4km/h 13mph /  20.9km/h 40.3% 0.00in /  0mm 84 W/m2
14:49 60.7 °F /  15.9 °C 37 °F /  2.8 °C 29.99in /  1015.5hPa WNW 3mph /  4.8km/h 13mph /  20.9km/h 41.1% 0.00in /  0mm 118 W/m2
14:54 60.6 °F /  15.9 °C 37 °F /  2.8 °C 29.99in /  1015.5hPa West 1.8mph /  2.9km/h 13mph /  20.9km/h 41.3% 0.00in /  0mm 69 W/m2
14:59 60.6 °F /  15.9 °C 36.3 °F /  2.4 °C 29.99in /  1015.5hPa WSW 1.3mph /  2.1km/h 13mph /  20.9km/h 40.3% 0.00in /  0mm 91 W/m2
15:04 60.5 °F /  15.8 °C 35.7 °F /  2.1 °C 29.99in /  1015.5hPa WNW 1.7mph /  2.7km/h 13mph /  20.9km/h 39.4% 0.00in /  0mm 165 W/m2
15:06 60.5 °F /  15.8 °C 37 °F /  2.8 °C 29.99in /  1015.5hPa NW 2.2mph /  3.5km/h 9mph /  14.5km/h 41.4% 0.00in /  0mm 102 W/m2
15:30 60.2 °F /  15.7 °C 36.4 °F /  2.4 °C 30.00in /  1015.8hPa WNW 3mph /  4.8km/h 16mph /  25.7km/h 41% 0.00in /  0mm 209 W/m2
16:04 58.5 °F /  14.7 °C 34.3 °F /  1.3 °C 30.00in /  1015.8hPa WNW 0.9mph /  1.4km/h 3mph /  4.8km/h 40% 0.00in /  0mm 25 W/m2
16:09 58.5 °F /  14.7 °C 34.3 °F /  1.3 °C 30.00in /  1015.8hPa WNW 6.4mph /  10.3km/h 16mph /  25.7km/h 40% 0.00in /  0mm 25 W/m2
16:14 58.4 °F /  14.7 °C 34 °F /  1.1 °C 30.01in /  1016.1hPa WNW 4.1mph /  6.6km/h 16mph /  25.7km/h 39.6% 0.00in /  0mm 25 W/m2
16:19 58.4 °F /  14.7 °C 34.5 °F /  1.4 °C 30.01in /  1016.1hPa NW 2.1mph /  3.4km/h 16mph /  25.7km/h 40.5% 0.00in /  0mm 23 W/m2
16:24 58.3 °F /  14.6 °C 34.5 °F /  1.4 °C 30.01in /  1016.1hPa WNW 3.2mph /  5.1km/h 16mph /  25.7km/h 40.7% 0.00in /  0mm 23 W/m2
16:29 58.2 °F /  14.6 °C 34.1 °F /  1.2 °C 30.00in /  1015.8hPa WNW 2.8mph /  4.5km/h 16mph /  25.7km/h 40.2% 0.00in /  0mm 21 W/m2
16:34 58 °F /  14.4 °C 34.2 °F /  1.2 °C 30.01in /  1016.1hPa WNW 2.9mph /  4.7km/h 16mph /  25.7km/h 40.6% 0.00in /  0mm 21 W/m2
16:39 57.8 °F /  14.3 °C 34.3 °F /  1.3 °C 30.01in /  1016.1hPa NW 3.9mph /  6.3km/h 10mph /  16.1km/h 41% 0.00in /  0mm 19 W/m2
16:44 57.7 °F /  14.3 °C 34.5 °F /  1.4 °C 30.01in /  1016.1hPa NW 2.8mph /  4.5km/h 10mph /  16.1km/h 41.5% 0.00in /  0mm 19 W/m2
16:49 57.6 °F /  14.2 °C 34.8 °F /  1.6 °C 30.01in /  1016.1hPa NW 0.9mph /  1.4km/h 10mph /  16.1km/h 42.2% 0.00in /  0mm 19 W/m2
16:54 57.5 °F /  14.2 °C 34.8 °F /  1.6 °C 30.01in /  1016.1hPa WNW 2.8mph /  4.5km/h 10mph /  16.1km/h 42.4% 0.00in /  0mm 18 W/m2
16:59 57.4 °F /  14.1 °C 34.4 °F /  1.3 °C 30.01in /  1016.1hPa WNW 2.3mph /  3.7km/h 11mph /  17.7km/h 41.8% 0.00in /  0mm 16 W/m2
17:04 57.2 °F /  14 °C 34.7 °F /  1.5 °C 30.01in /  1016.1hPa NW 2.9mph /  4.7km/h 11mph /  17.7km/h 42.6% 0.00in /  0mm 16 W/m2
17:09 57.1 °F /  13.9 °C 34.4 °F /  1.3 °C 30.01in /  1016.1hPa WNW 1.5mph /  2.4km/h 10mph /  16.1km/h 42.4% 0.00in /  0mm 14 W/m2
17:14 56.9 °F /  13.8 °C 34.6 °F /  1.4 °C 30.01in /  1016.1hPa WNW 1.9mph /  3.1km/h 10mph /  16.1km/h 42.8% 0.00in /  0mm 14 W/m2
17:19 56.8 °F /  13.8 °C 34.3 °F /  1.3 °C 30.02in /  1016.5hPa NW 0.4mph /  0.6km/h 10mph /  16.1km/h 42.6% 0.00in /  0mm 12 W/m2
17:24 56.7 °F /  13.7 °C 34.4 °F /  1.3 °C 30.02in /  1016.5hPa NW 0.3mph /  0.5km/h 10mph /  16.1km/h 43% 0.00in /  0mm 11 W/m2
17:29 56.5 °F /  13.6 °C 34.6 °F /  1.4 °C 30.02in /  1016.5hPa NW 0.3mph /  0.5km/h 10mph /  16.1km/h 43.5% 0.00in /  0mm 9 W/m2
17:34 56.3 °F /  13.5 °C 34.7 °F /  1.5 °C 30.03in /  1016.8hPa NW 0.2mph /  0.3km/h 10mph /  16.1km/h 44% 0.00in /  0mm 7 W/m2
17:39 56 °F /  13.3 °C 35 °F /  1.7 °C 30.03in /  1016.8hPa Calm   3mph /  4.8km/h 44.9% 0.00in /  0mm 5 W/m2
17:44 55.8 °F /  13.2 °C 35 °F /  1.7 °C 30.03in /  1016.8hPa Calm   3mph /  4.8km/h 45.4% 0.00in /  0mm 0 W/m2
17:49 55.5 °F /  13.1 °C 34.9 °F /  1.6 °C 30.03in /  1016.8hPa Calm   3mph /  4.8km/h 45.7% 0.00in /  0mm 0 W/m2
17:54 55.1 °F /  12.8 °C 34.8 °F /  1.6 °C 30.03in /  1016.8hPa NW 0.5mph /  0.8km/h 5mph /  8km/h 46% 0.00in /  0mm 0 W/m2
17:59 54.8 °F /  12.7 °C 34.5 °F /  1.4 °C 30.03in /  1016.8hPa NW 0.7mph /  1.1km/h 5mph /  8km/h 46% 0.00in /  0mm 0 W/m2
18:04 54.5 °F /  12.5 °C 34.2 °F /  1.2 °C 30.04in /  1017.2hPa NW 0.1mph /  0.2km/h 5mph /  8km/h 46.1% 0.00in /  0mm 0 W/m2
18:09 54.3 °F /  12.4 °C 34.3 °F /  1.3 °C 30.04in /  1017.2hPa Calm   2mph /  3.2km/h 46.7% 0.00in /  0mm 0 W/m2
18:14 54 °F /  12.2 °C 34.3 °F /  1.3 °C 30.04in /  1017.2hPa Calm   2mph /  3.2km/h 47% 0.00in /  0mm 0 W/m2
18:19 53.8 °F /  12.1 °C 34.1 °F /  1.2 °C 30.05in /  1017.5hPa Calm   2mph /  3.2km/h 47.2% 0.00in /  0mm 0 W/m2
18:24 53.5 °F /  11.9 °C 34.3 °F /  1.3 °C 30.05in /  1017.5hPa Calm   2mph /  3.2km/h 47.9% 0.00in /  0mm 0 W/m2
18:29 53.3 °F /  11.8 °C 34.6 °F /  1.4 °C 30.05in /  1017.5hPa Calm   2mph /  3.2km/h 49% 0.00in /  0mm 0 W/m2
18:34 53 °F /  11.7 °C 34.4 °F /  1.3 °C 30.05in /  1017.5hPa Calm   2mph /  3.2km/h 49% 0.00in /  0mm 0 W/m2
18:39 52.7 °F /  11.5 °C 34.4 °F /  1.3 °C 30.05in /  1017.5hPa Calm     49.6% 0.00in /  0mm 0 W/m2
18:43 52.5 °F /  11.4 °C 34.9 °F /  1.6 °C 30.06in /  1017.8hPa Calm     51% 0.00in /  0mm 0 W/m2
Hartford County Weather
Compliments of Weather Underground - 2 mb